Time;durP1;ratioP1;P1;durP2;ratioP2;P2;SDS_P1;SDS_P2;PMS_P1;PMS_P2;Temp;Humidity;BMP_temperature;BMP_pressure;BME280_temperature;BME280_humidity;BME280_pressure;Samples;Min_cycle;Max_cycle;Signal;HPM_P1;HPM_P2
2022/06/17 00:01:43;;;;;;;9.82;4.90;;;13.00;99.90;;;;;;5082318;28;20028;-57
2022/06/17 00:04:09;;;;;;;10.15;5.07;;;13.20;99.90;;;;;;5081012;28;20072;-57
2022/06/17 00:06:41;;;;;;;10.45;5.10;;;13.00;99.90;;;;;;5080636;28;20036;-57
2022/06/17 00:09:08;;;;;;;9.30;5.13;;;12.90;99.90;;;;;;5080323;28;20077;-56
2022/06/17 00:11:36;;;;;;;9.73;5.20;;;12.80;99.90;;;;;;5078878;28;20048;-56
2022/06/17 00:14:05;;;;;;;14.07;5.90;;;12.60;99.90;;;;;;5082216;28;20055;-57
2022/06/17 00:16:31;;;;;;;10.65;5.63;;;12.50;99.90;;;;;;5075527;28;20028;-56
2022/06/17 00:18:57;;;;;;;10.55;5.65;;;12.50;99.90;;;;;;5075576;28;20028;-56
2022/06/17 00:21:27;;;;;;;11.13;6.18;;;12.50;99.90;;;;;;5082783;28;20480;-56
2022/06/17 00:23:53;;;;;;;11.18;6.18;;;12.40;99.90;;;;;;5074598;28;20046;-57
2022/06/17 00:26:19;;;;;;;11.60;6.25;;;12.40;99.90;;;;;;5079727;28;20032;-56
2022/06/17 00:28:45;;;;;;;12.85;5.82;;;12.40;99.90;;;;;;5078925;28;20024;-56
2022/06/17 00:31:11;;;;;;;12.57;6.40;;;12.40;99.90;;;;;;5078707;28;20127;-56
2022/06/17 00:33:36;;;;;;;10.85;5.82;;;12.30;99.90;;;;;;5073777;28;20095;-56
2022/06/17 00:36:05;;;;;;;13.18;6.03;;;12.20;99.90;;;;;;5077949;28;20024;-56
2022/06/17 00:38:33;;;;;;;12.23;5.93;;;12.20;99.90;;;;;;5079299;28;20403;-56
2022/06/17 00:41:10;;;;;;;9.90;5.88;;;12.20;99.90;;;;;;5079964;28;20043;-56
2022/06/17 00:43:37;;;;;;;11.07;5.80;;;12.10;99.90;;;;;;5077722;28;20047;-56
2022/06/17 00:46:05;;;;;;;11.68;6.20;;;12.00;99.90;;;;;;5080833;28;20097;-56
2022/06/17 00:48:54;;;;;;;10.73;5.97;;;12.00;99.90;;;;;;5078362;28;20391;-57
2022/06/17 00:51:23;;;;;;;14.18;5.80;;;12.00;99.90;;;;;;5069094;28;20778;-56
2022/06/17 00:54:14;;;;;;;12.68;5.38;;;12.10;99.90;;;;;;5077763;28;20126;-57
2022/06/17 00:56:40;;;;;;;12.13;5.18;;;12.30;99.90;;;;;;5078106;28;20111;-56
2022/06/17 00:59:14;;;;;;;11.32;5.13;;;12.60;99.90;;;;;;5075494;28;20115;-56
2022/06/17 01:01:53;;;;;;;12.20;5.13;;;12.60;99.90;;;;;;5073980;28;20078;-56
2022/06/17 01:04:25;;;;;;;10.55;5.57;;;12.50;99.90;;;;;;5076983;28;20028;-56
2022/06/17 01:07:04;;;;;;;11.00;5.60;;;12.40;99.90;;;;;;5077060;28;20543;-57
2022/06/17 01:12:30;;;;;;;10.27;5.68;;;12.20;99.90;;;;;;5081901;28;20059;-56
2022/06/17 01:14:59;;;;;;;9.38;5.25;;;12.20;99.90;;;;;;5078520;28;20535;-56
2022/06/17 01:17:26;;;;;;;10.38;5.35;;;12.10;99.90;;;;;;5073699;28;21138;-57
2022/06/17 01:19:55;;;;;;;10.70;5.63;;;12.10;99.90;;;;;;5079456;28;20103;-56
2022/06/17 01:22:27;;;;;;;9.80;5.33;;;12.20;99.90;;;;;;5077620;28;20119;-56
2022/06/17 01:25:27;;;;;;;9.88;5.35;;;12.10;99.90;;;;;;5073135;28;20036;-57
2022/06/17 01:27:55;;;;;;;;;;;12.00;99.90;;;;;;5072747;28;20031;-56
2022/06/17 01:30:33;;;;;;;11.05;5.80;;;11.90;99.90;;;;;;5071707;28;19908;-56
2022/06/17 01:33:03;;;;;;;12.75;6.05;;;11.90;99.90;;;;;;5076600;28;20077;-57
2022/06/17 01:35:35;;;;;;;10.00;5.80;;;11.90;99.90;;;;;;5074619;28;20016;-56
2022/06/17 01:38:01;;;;;;;12.98;6.00;;;11.90;99.90;;;;;;5077349;28;20158;-56
2022/06/17 01:40:28;;;;;;;10.93;5.60;;;11.90;99.90;;;;;;5079908;28;20163;-56
2022/06/17 01:42:58;;;;;;;11.43;6.22;;;11.90;99.90;;;;;;5077650;28;20354;-56
2022/06/17 01:45:23;;;;;;;11.13;6.28;;;11.80;99.90;;;;;;5078465;28;20157;-57
2022/06/17 01:47:49;;;;;;;11.35;6.45;;;11.80;99.90;;;;;;5083161;28;20114;-57
2022/06/17 01:50:21;;;;;;;12.65;6.47;;;11.70;99.90;;;;;;5080177;28;20185;-56
2022/06/17 01:53:05;;;;;;;12.02;6.43;;;11.70;99.90;;;;;;5073513;28;20028;-56
2022/06/17 01:55:40;;;;;;;13.40;6.50;;;11.70;99.90;;;;;;5075682;28;20072;-57
2022/06/17 01:58:08;;;;;;;11.02;6.35;;;11.70;99.90;;;;;;5079249;28;20424;-56
2022/06/17 02:00:35;;;;;;;12.23;6.35;;;11.60;99.90;;;;;;5072015;28;20028;-56
2022/06/17 02:03:26;;;;;;;13.15;6.68;;;11.60;99.90;;;;;;5069353;28;20311;-56
2022/06/17 02:05:58;;;;;;;12.13;7.07;;;11.50;99.90;;;;;;5075192;28;20028;-56
2022/06/17 02:08:23;;;;;;;14.35;7.07;;;11.50;99.90;;;;;;5075922;28;20036;-56
2022/06/17 02:10:49;;;;;;;14.93;7.60;;;11.50;99.90;;;;;;5078831;28;20540;-56
2022/06/17 02:13:16;;;;;;;12.75;6.80;;;11.50;99.90;;;;;;5077126;28;20025;-56
2022/06/17 02:15:43;;;;;;;12.05;6.95;;;11.60;99.90;;;;;;5081109;28;20028;-56
2022/06/17 02:18:15;;;;;;;14.15;7.68;;;11.60;99.90;;;;;;5072978;28;20174;-56
2022/06/17 02:20:41;;;;;;;14.45;7.97;;;11.60;99.90;;;;;;5073892;28;20040;-55
2022/06/17 02:23:07;;;;;;;12.98;7.00;;;11.50;99.90;;;;;;5066163;28;20468;-56
2022/06/17 02:25:49;;;;;;;12.15;7.22;;;11.50;99.90;;;;;;5076094;28;20025;-56
2022/06/17 02:28:18;;;;;;;11.43;6.65;;;11.50;99.90;;;;;;5072831;28;20028;-56
2022/06/17 02:30:48;;;;;;;13.35;7.05;;;11.40;99.90;;;;;;5073754;28;20450;-56
2022/06/17 02:33:14;;;;;;;17.05;6.90;;;11.40;99.90;;;;;;5073812;28;20039;-56
2022/06/17 02:35:48;;;;;;;13.75;7.15;;;11.40;99.90;;;;;;5081549;28;20036;-56
2022/06/17 02:38:19;;;;;;;12.30;6.97;;;11.40;99.90;;;;;;5075707;28;20425;-56
2022/06/17 02:40:48;;;;;;;11.93;6.90;;;11.30;99.90;;;;;;5071862;28;20135;-57
2022/06/17 02:43:19;;;;;;;13.25;6.53;;;11.30;99.90;;;;;;5076306;28;20190;-56
2022/06/17 02:45:52;;;;;;;15.13;7.10;;;11.20;99.90;;;;;;5073035;28;20395;-56
2022/06/17 02:48:24;;;;;;;15.63;7.10;;;11.20;99.90;;;;;;5081254;28;20032;-57
2022/06/17 02:50:52;;;;;;;13.65;7.20;;;11.10;99.90;;;;;;5077087;28;20091;-56
2022/06/17 02:53:24;;;;;;;16.40;7.72;;;11.00;99.90;;;;;;5072983;28;20032;-56
2022/06/17 02:55:50;;;;;;;15.27;7.38;;;11.00;99.90;;;;;;5078964;28;20031;-56
2022/06/17 02:58:39;;;;;;;13.80;7.35;;;11.00;99.90;;;;;;5074485;28;20488;-57
2022/06/17 03:01:15;;;;;;;13.75;7.50;;;11.00;99.90;;;;;;5075519;28;20290;-56
2022/06/17 03:03:42;;;;;;;12.48;7.22;;;10.90;99.90;;;;;;5076973;28;20097;-56
2022/06/17 03:06:19;;;;;;;12.35;7.07;;;10.90;99.90;;;;;;5080680;28;20086;-56
2022/06/17 03:08:50;;;;;;;15.13;7.75;;;10.90;99.90;;;;;;5085168;28;20450;-56
2022/06/17 03:11:17;;;;;;;13.63;7.10;;;10.90;99.90;;;;;;5079980;28;20047;-56
2022/06/17 03:13:50;;;;;;;12.52;6.82;;;10.90;99.90;;;;;;5082257;28;20365;-56
2022/06/17 03:16:17;;;;;;;14.48;7.13;;;10.90;99.90;;;;;;5075286;28;20425;-57
2022/06/17 03:18:45;;;;;;;15.80;7.57;;;11.00;99.90;;;;;;5076199;28;20050;-57
2022/06/17 03:21:11;;;;;;;13.38;6.75;;;11.00;99.90;;;;;;5082866;28;20028;-56
2022/06/17 03:23:48;;;;;;;12.93;6.97;;;11.10;99.90;;;;;;5077324;28;20062;-56
2022/06/17 03:26:20;;;;;;;13.55;6.82;;;11.00;99.90;;;;;;5077389;28;20451;-56
2022/06/17 03:28:48;;;;;;;13.35;7.15;;;11.10;99.90;;;;;;5078112;28;20465;-56
2022/06/17 03:31:16;;;;;;;12.85;7.20;;;11.10;99.90;;;;;;5077939;28;20032;-56
2022/06/17 03:34:26;;;;;;;15.85;7.25;;;11.10;99.90;;;;;;5073888;28;20043;-56
2022/06/17 03:37:02;;;;;;;14.15;7.30;;;11.20;99.90;;;;;;5022634;28;20124;-56
2022/06/17 03:39:30;;;;;;;14.93;6.95;;;11.20;99.90;;;;;;5071603;28;20068;-56
2022/06/17 03:42:32;;;;;;;13.07;7.13;;;11.30;99.90;;;;;;5078687;28;20028;-57
2022/06/17 03:45:15;;;;;;;14.57;7.57;;;11.30;99.90;;;;;;5046775;28;20486;-56
2022/06/17 03:47:59;;;;;;;13.18;7.32;;;11.30;99.90;;;;;;5081536;28;20033;-56
2022/06/17 03:50:36;;;;;;;18.42;7.53;;;11.40;99.90;;;;;;5077756;28;20036;-56
2022/06/17 03:53:12;;;;;;;14.10;7.18;;;11.50;99.90;;;;;;5074961;28;20383;-57
2022/06/17 03:55:38;;;;;;;13.65;7.07;;;11.80;99.90;;;;;;5073271;28;20028;-56
2022/06/17 03:58:04;;;;;;;12.98;6.80;;;11.90;99.90;;;;;;5079372;28;20039;-56
2022/06/17 04:00:32;;;;;;;12.73;7.18;;;12.20;99.90;;;;;;5078398;28;20020;-56
2022/06/17 04:03:01;;;;;;;11.82;6.95;;;12.50;99.90;;;;;;5078313;28;20446;-56
2022/06/17 04:05:29;;;;;;;12.88;7.07;;;12.70;99.90;;;;;;5079202;28;20032;-56
2022/06/17 04:07:55;;;;;;;14.52;6.90;;;12.90;99.90;;;;;;5072726;28;20031;-57
2022/06/17 04:10:24;;;;;;;11.05;6.47;;;13.00;99.90;;;;;;5077486;28;20056;-56
2022/06/17 04:12:52;;;;;;;12.87;6.20;;;13.10;99.90;;;;;;5076005;28;20028;-56
2022/06/17 04:15:36;;;;;;;11.00;6.18;;;13.20;99.90;;;;;;5082661;28;20024;-56
2022/06/17 04:18:02;;;;;;;11.13;5.72;;;13.40;99.90;;;;;;5075991;28;20145;-56
2022/06/17 04:20:37;;;;;;;9.57;5.30;;;13.60;99.90;;;;;;5073343;28;20043;-56
2022/06/17 04:23:15;;;;;;;10.82;5.20;;;13.80;99.90;;;;;;5077616;28;20107;-56
2022/06/17 04:25:46;;;;;;;10.88;5.65;;;14.10;99.90;;;;;;5081075;28;20032;-56
2022/06/17 04:28:16;;;;;;;13.05;5.70;;;14.40;99.90;;;;;;5071488;28;20515;-56
2022/06/17 04:30:46;;;;;;;10.60;5.15;;;14.70;99.90;;;;;;5076230;28;20040;-56
2022/06/17 04:33:38;;;;;;;14.15;5.18;;;14.80;99.90;;;;;;5075600;28;20035;-55
2022/06/17 04:36:16;;;;;;;11.65;5.30;;;15.00;99.90;;;;;;5077721;28;20386;-56
2022/06/17 04:39:08;;;;;;;9.82;5.10;;;15.00;99.90;;;;;;5080778;28;20028;-56
2022/06/17 04:41:37;;;;;;;12.18;5.28;;;15.00;99.90;;;;;;5074627;28;20048;-56
2022/06/17 04:44:05;;;;;;;10.10;4.75;;;15.00;99.90;;;;;;5077122;28;20080;-57
2022/06/17 04:46:48;;;;;;;9.77;5.35;;;15.00;99.90;;;;;;5080762;28;20036;-56
2022/06/17 04:49:19;;;;;;;8.95;4.65;;;15.00;99.90;;;;;;5080242;28;20088;-55
2022/06/17 04:51:44;;;;;;;;;;;15.00;99.90;;;;;;5075038;28;20094;-57
2022/06/17 04:54:11;;;;;;;9.35;4.97;;;15.00;99.90;;;;;;5078875;28;19912;-57
2022/06/17 04:56:41;;;;;;;10.93;4.95;;;15.00;99.90;;;;;;5081059;28;20024;-56
2022/06/17 04:59:34;;;;;;;13.73;5.55;;;15.00;99.90;;;;;;5076746;28;20035;-55
2022/06/17 05:02:06;;;;;;;9.10;4.50;;;14.90;99.90;;;;;;5075302;28;20446;-56
2022/06/17 05:04:32;;;;;;;10.90;4.82;;;14.80;99.90;;;;;;5078648;28;20035;-56
2022/06/17 05:06:58;;;;;;;9.27;5.15;;;14.70;99.90;;;;;;5079120;28;20047;-56
2022/06/17 05:09:42;;;;;;;9.40;4.72;;;14.70;99.90;;;;;;5079848;28;20533;-57
2022/06/17 05:12:30;;;;;;;11.15;4.80;;;14.60;99.90;;;;;;5081077;28;20043;-57
2022/06/17 05:15:01;;;;;;;9.13;5.25;;;14.70;99.90;;;;;;5079907;28;20020;-57
2022/06/17 05:17:27;;;;;;;9.48;4.82;;;14.90;99.90;;;;;;5075574;28;20695;-56
2022/06/17 05:19:53;;;;;;;11.93;4.50;;;15.00;99.90;;;;;;5078170;28;20024;-56
2022/06/17 05:22:41;;;;;;;8.73;4.40;;;15.20;99.90;;;;;;5075069;28;20059;-56
2022/06/17 05:25:13;;;;;;;10.38;3.90;;;15.40;99.90;;;;;;5075959;28;20335;-56
2022/06/17 05:27:39;;;;;;;9.00;3.88;;;15.80;99.90;;;;;;5075695;28;20337;-56
2022/06/17 05:30:05;;;;;;;8.98;4.13;;;16.10;99.90;;;;;;5076711;28;20109;-57
2022/06/17 05:32:31;;;;;;;9.38;4.20;;;16.30;99.90;;;;;;5076451;28;20024;-56
2022/06/17 05:34:57;;;;;;;8.40;3.83;;;16.50;99.90;;;;;;5074641;28;20390;-56
2022/06/17 05:37:23;;;;;;;7.80;3.40;;;16.70;99.90;;;;;;5078548;28;20024;-56
2022/06/17 05:39:48;;;;;;;10.60;3.50;;;16.90;99.90;;;;;;5077546;28;20044;-56
2022/06/17 05:42:14;;;;;;;11.68;3.80;;;17.00;99.90;;;;;;5072018;28;20023;-56
2022/06/17 05:44:39;;;;;;;8.88;3.42;;;17.10;99.90;;;;;;5078486;28;20500;-56
2022/06/17 05:47:05;;;;;;;10.15;3.70;;;17.10;99.90;;;;;;5073192;28;20391;-56
2022/06/17 05:49:31;;;;;;;10.77;4.10;;;17.10;99.90;;;;;;5076151;28;20472;-56
2022/06/17 05:51:58;;;;;;;9.98;3.72;;;17.10;99.90;;;;;;5074516;28;20411;-56
2022/06/17 05:54:24;;;;;;;8.43;3.47;;;17.30;99.90;;;;;;5076434;28;20337;-56
2022/06/17 05:56:50;;;;;;;12.10;3.53;;;17.50;99.90;;;;;;5072677;28;20088;-56
2022/06/17 05:59:17;;;;;;;10.48;3.83;;;17.80;99.90;;;;;;5075346;28;20329;-57
2022/06/17 06:01:44;;;;;;;9.88;4.00;;;18.00;99.90;;;;;;5073213;28;20028;-56
2022/06/17 06:04:10;;;;;;;8.93;3.72;;;18.30;99.90;;;;;;5073466;28;20064;-55
2022/06/17 06:06:36;;;;;;;9.73;3.38;;;18.70;99.90;;;;;;5072340;28;20034;-57
2022/06/17 06:09:02;;;;;;;8.73;3.22;;;19.00;99.90;;;;;;5076584;28;20032;-56
2022/06/17 06:11:27;;;;;;;8.38;3.08;;;19.20;99.90;;;;;;5075651;28;20118;-56
2022/06/17 06:13:53;;;;;;;9.95;3.25;;;19.50;99.90;;;;;;5077321;28;20035;-57
2022/06/17 06:16:19;;;;;;;8.20;3.20;;;19.60;99.90;;;;;;5074439;28;20244;-57
2022/06/17 06:18:47;;;;;;;6.93;3.10;;;19.70;99.90;;;;;;5083079;28;20031;-56
2022/06/17 06:21:12;;;;;;;12.00;3.85;;;19.60;99.90;;;;;;5077027;28;20519;-57
2022/06/17 06:23:39;;;;;;;8.68;3.25;;;19.50;99.90;;;;;;5069743;28;20144;-56
2022/06/17 06:26:08;;;;;;;11.63;3.65;;;19.40;99.90;;;;;;5072616;28;20116;-56
2022/06/17 06:28:33;;;;;;;8.70;3.90;;;19.40;99.90;;;;;;5073054;28;20635;-56
2022/06/17 06:31:11;;;;;;;8.80;3.65;;;19.60;99.90;;;;;;5082578;28;20032;-57
2022/06/17 06:33:38;;;;;;;8.10;3.45;;;19.80;99.90;;;;;;5091720;28;20027;-56
2022/06/17 06:36:04;;;;;;;8.02;3.35;;;20.10;99.90;;;;;;5094142;28;20031;-56
2022/06/17 06:38:30;;;;;;;9.07;2.92;;;20.40;99.90;;;;;;5077712;28;20046;-56
2022/06/17 06:40:55;;;;;;;9.68;3.45;;;20.70;99.90;;;;;;5082531;28;20387;-56
2022/06/17 06:43:22;;;;;;;9.20;3.13;;;20.80;99.90;;;;;;5077282;28;20044;-56
2022/06/17 06:45:51;;;;;;;7.78;2.92;;;20.80;99.90;;;;;;5084982;27;20031;-56
2022/06/17 06:48:20;;;;;;;9.00;2.70;;;21.10;99.90;;;;;;5078292;28;20588;-56
2022/06/17 06:50:46;;;;;;;8.82;3.00;;;21.00;99.90;;;;;;5078308;28;20337;-56
2022/06/17 06:53:12;;;;;;;9.15;2.80;;;20.90;99.90;;;;;;5076286;28;20058;-56
2022/06/17 06:55:38;;;;;;;9.10;3.05;;;20.90;99.90;;;;;;5079921;28;20036;-56
2022/06/17 06:58:24;;;;;;;7.45;2.60;;;20.80;99.90;;;;;;5076943;28;20452;-57
2022/06/17 07:00:54;;;;;;;8.68;2.90;;;20.80;99.90;;;;;;5078378;28;20032;-56
2022/06/17 07:03:20;;;;;;;7.07;2.58;;;20.90;99.90;;;;;;5083886;28;20498;-57
2022/06/17 07:05:49;;;;;;;12.25;2.78;;;21.10;99.90;;;;;;5081068;28;20028;-56
2022/06/17 07:08:18;;;;;;;9.07;3.27;;;21.20;99.90;;;;;;5081211;28;20035;-57
2022/06/17 07:10:45;;;;;;;10.48;2.80;;;21.20;99.90;;;;;;5081656;28;20055;-56
2022/06/17 07:13:12;;;;;;;9.95;3.15;;;21.00;99.90;;;;;;5084268;28;20065;-57
2022/06/17 07:15:39;;;;;;;8.60;3.00;;;21.00;99.90;;;;;;5083161;28;20048;-56
2022/06/17 07:18:20;;;;;;;11.18;3.13;;;20.90;99.90;;;;;;5076026;28;20029;-57
2022/06/17 07:20:49;;;;;;;10.02;3.30;;;20.80;99.90;;;;;;5069709;28;20029;-56
2022/06/17 07:23:21;;;;;;;6.95;3.00;;;20.60;99.90;;;;;;5073739;28;20038;-57
2022/06/17 07:25:47;;;;;;;10.00;3.05;;;20.50;99.90;;;;;;5073657;28;20139;-56
2022/06/17 07:28:19;;;;;;;6.70;2.70;;;20.40;99.90;;;;;;5079717;28;20102;-57
2022/06/17 07:30:49;;;;;;;7.78;2.70;;;20.60;99.90;;;;;;5081807;28;20123;-56
2022/06/17 07:33:16;;;;;;;7.43;2.65;;;20.90;99.90;;;;;;5074451;28;20032;-56
2022/06/17 07:35:45;;;;;;;10.68;2.58;;;21.10;99.90;;;;;;5080468;28;20028;-56
2022/06/17 07:40:58;;;;;;;8.20;2.78;;;21.30;99.90;;;;;;5067547;28;20177;-57
2022/06/17 07:43:23;;;;;;;7.32;2.70;;;21.40;99.90;;;;;;5068699;28;20043;-56
2022/06/17 07:45:50;;;;;;;8.77;2.83;;;21.60;99.90;;;;;;5068633;28;20021;-56
2022/06/17 07:48:16;;;;;;;5.80;2.50;;;21.70;99.60;;;;;;5068221;28;20107;-56
2022/06/17 07:50:43;;;;;;;8.05;2.92;;;21.60;99.30;;;;;;5077754;28;20024;-56
2022/06/17 07:53:09;;;;;;;9.98;2.65;;;21.70;99.80;;;;;;5073319;28;20017;-56
2022/06/17 07:55:35;;;;;;;7.50;2.60;;;21.90;98.80;;;;;;5075715;28;20036;-56
2022/06/17 07:58:01;;;;;;;7.78;2.60;;;22.00;98.60;;;;;;5079966;28;20032;-57
2022/06/17 08:00:41;;;;;;;6.32;2.70;;;22.20;99.10;;;;;;5066032;28;20429;-57
2022/06/17 08:03:07;;;;;;;8.93;2.70;;;22.40;97.80;;;;;;5068985;28;20055;-56
2022/06/17 08:05:33;;;;;;;11.77;3.03;;;22.50;97.40;;;;;;5069688;28;20036;-57
2022/06/17 08:08:03;;;;;;;6.30;2.63;;;22.50;95.70;;;;;;5070822;28;20024;-56
2022/06/17 08:10:31;;;;;;;7.85;2.65;;;22.90;96.00;;;;;;5067062;28;20048;-56
2022/06/17 08:12:57;;;;;;;6.85;2.65;;;23.50;93.80;;;;;;5068254;28;20016;-57
2022/06/17 08:15:23;;;;;;;5.85;2.45;;;23.80;92.50;;;;;;5070734;28;20028;-57
2022/06/17 08:17:50;;;;;;;10.20;2.65;;;24.00;91.40;;;;;;5069531;28;20051;-56
2022/06/17 08:20:22;;;;;;;7.20;2.78;;;24.30;90.60;;;;;;5072588;28;20040;-56
2022/06/17 08:22:48;;;;;;;8.07;2.33;;;24.50;90.60;;;;;;5070217;28;20024;-58
2022/06/17 08:25:14;;;;;;;6.97;2.50;;;25.10;88.80;;;;;;5070493;28;20016;-57
2022/06/17 08:27:56;;;;;;;7.63;2.60;;;25.60;86.80;;;;;;5075884;28;20122;-56
2022/06/17 08:30:34;;;;;;;6.18;2.22;;;26.10;85.60;;;;;;5072860;28;20107;-56
2022/06/17 08:33:00;;;;;;;6.38;2.20;;;26.70;82.60;;;;;;5074655;28;20036;-56
2022/06/17 08:35:27;;;;;;;8.48;2.33;;;26.90;82.00;;;;;;5078383;28;20318;-57
2022/06/17 08:37:56;;;;;;;9.30;3.22;;;26.90;80.20;;;;;;5078194;28;20417;-56
2022/06/17 08:40:53;;;;;;;7.18;2.33;;;27.20;79.30;;;;;;5079314;28;20035;-57
2022/06/17 08:43:37;;;;;;;7.32;2.38;;;27.50;77.70;;;;;;5072179;28;20035;-56
2022/06/17 08:46:20;;;;;;;6.43;2.42;;;27.60;78.70;;;;;;5076879;28;20030;-57
2022/06/17 08:49:10;;;;;;;6.65;2.30;;;27.60;78.20;;;;;;5073090;28;20103;-57
2022/06/17 08:52:12;;;;;;;5.88;2.13;;;27.50;74.50;;;;;;5067127;28;20032;-57
2022/06/17 08:55:00;;;;;;;7.18;2.30;;;27.10;74.40;;;;;;5075179;28;20082;-56
2022/06/17 08:57:32;;;;;;;5.97;2.15;;;27.40;74.70;;;;;;5077187;28;20024;-57
2022/06/17 09:00:13;;;;;;;7.88;2.30;;;27.40;73.50;;;;;;5073939;28;20115;-57
2022/06/17 09:03:06;;;;;;;6.68;2.15;;;27.60;73.90;;;;;;5074464;28;20444;-56
2022/06/17 09:05:41;;;;;;;6.68;2.40;;;27.80;74.60;;;;;;5076871;28;20040;-56
2022/06/17 09:08:35;;;;;;;5.57;2.60;;;27.70;72.10;;;;;;5069295;28;20039;-57
2022/06/17 09:11:12;;;;;;;6.57;2.28;;;27.60;72.30;;;;;;5068894;28;20075;-57
2022/06/17 09:14:12;;;;;;;7.32;2.30;;;27.80;71.50;;;;;;5070570;28;20018;-57
2022/06/17 09:16:40;;;;;;;;;;;28.10;70.50;;;;;;5071645;28;20043;-56
2022/06/17 09:19:08;;;;;;;7.55;2.25;;;28.10;70.50;;;;;;5071316;28;20022;-57
2022/06/17 09:21:57;;;;;;;7.45;2.60;;;28.10;70.70;;;;;;5070794;28;20114;-57
2022/06/17 09:24:30;;;;;;;5.43;2.10;;;27.90;70.30;;;;;;5064842;28;20032;-56
2022/06/17 09:27:02;;;;;;;7.47;2.10;;;28.80;70.10;;;;;;5077666;28;20033;-57
2022/06/17 09:29:51;;;;;;;8.25;2.22;;;28.80;70.00;;;;;;5070131;28;20024;-57
2022/06/17 09:32:27;;;;;;;8.43;2.25;;;29.10;69.30;;;;;;5071264;28;20028;-57
2022/06/17 09:35:27;;;;;;;6.90;2.25;;;28.90;68.60;;;;;;5072719;28;20368;-57
2022/06/17 09:38:05;;;;;;;10.40;2.22;;;29.10;68.30;;;;;;5078329;28;20547;-57
2022/06/17 09:40:38;;;;;;;6.45;2.10;;;29.20;67.80;;;;;;5078711;28;20347;-57
2022/06/17 09:43:29;;;;;;;8.45;2.20;;;29.00;67.50;;;;;;5074757;28;20387;-56
2022/06/17 09:46:40;;;;;;;6.30;2.10;;;29.30;68.60;;;;;;5072679;28;20048;-57
2022/06/17 09:49:24;;;;;;;7.60;2.20;;;29.80;68.20;;;;;;5075377;28;20130;-57
2022/06/17 09:52:12;;;;;;;10.45;2.20;;;29.60;65.60;;;;;;5070067;28;20733;-57
2022/06/17 09:54:43;;;;;;;10.18;2.42;;;29.70;66.30;;;;;;5072244;28;20017;-57
2022/06/17 09:57:17;;;;;;;6.10;2.30;;;29.50;65.60;;;;;;5075408;28;20049;-57
2022/06/17 09:59:46;;;;;;;8.10;2.20;;;29.60;65.90;;;;;;5073311;28;20396;-57
2022/06/17 10:02:29;;;;;;;8.50;2.30;;;29.90;66.20;;;;;;5074685;28;20036;-57
2022/06/17 10:04:57;;;;;;;6.30;2.00;;;30.30;64.80;;;;;;5073331;28;20036;-57
2022/06/17 10:07:48;;;;;;;5.53;2.10;;;30.30;64.20;;;;;;5075227;28;20349;-57
2022/06/17 10:10:21;;;;;;;5.60;2.03;;;30.40;63.70;;;;;;5079201;28;20058;-58
2022/06/17 10:13:11;;;;;;;5.72;2.00;;;30.00;65.80;;;;;;5082473;28;20088;-57
2022/06/17 10:18:31;;;;;;;7.68;1.98;;;30.00;63.90;;;;;;5077860;28;20603;-57
2022/06/17 10:18:47;;;;;;;5.72;2.05;;;29.70;64.80;;;;;;5081319;28;20040;-58
2022/06/17 10:21:33;;;;;;;6.97;2.10;;;29.80;64.80;;;;;;5073205;28;20110;-57
2022/06/17 10:23:58;;;;;;;8.00;1.95;;;30.30;62.90;;;;;;5073055;28;20557;-58
2022/06/17 10:26:33;;;;;;;5.80;1.92;;;30.80;61.50;;;;;;5074112;28;20024;-58
2022/06/17 10:29:30;;;;;;;6.13;2.20;;;31.40;62.30;;;;;;5080493;28;20035;-57
2022/06/17 10:31:58;;;;;;;5.40;1.80;;;31.20;62.00;;;;;;5075879;28;20032;-58
2022/06/17 10:34:42;;;;;;;6.30;1.95;;;31.50;61.90;;;;;;5081877;28;20405;-57
2022/06/17 10:37:08;;;;;;;5.55;2.00;;;31.70;62.20;;;;;;5075318;28;20025;-58
2022/06/17 10:39:35;;;;;;;8.25;1.92;;;31.90;61.30;;;;;;5071956;28;20142;-57
2022/06/17 10:42:01;;;;;;;5.88;1.60;;;32.40;62.40;;;;;;5078189;28;20032;-57
2022/06/17 10:44:30;;;;;;;4.32;1.60;;;32.90;61.60;;;;;;5077085;28;20078;-57
2022/06/17 10:47:27;;;;;;;5.25;1.70;;;33.10;60.00;;;;;;5075346;28;20044;-58
2022/06/17 10:49:59;;;;;;;5.90;1.65;;;33.10;58.00;;;;;;5075620;28;20029;-57
2022/06/17 10:52:37;;;;;;;9.27;1.90;;;33.00;59.30;;;;;;5075188;28;20020;-57
2022/06/17 10:55:04;;;;;;;6.88;1.92;;;33.10;58.70;;;;;;5072359;28;20468;-58
2022/06/17 10:57:32;;;;;;;6.07;1.90;;;33.40;58.80;;;;;;5075624;28;20039;-57
2022/06/17 10:59:58;;;;;;;7.10;1.80;;;32.90;59.00;;;;;;5072681;28;20111;-57
2022/06/17 11:02:24;;;;;;;5.57;1.73;;;32.90;58.30;;;;;;5077958;28;20103;-57
2022/06/17 11:05:01;;;;;;;5.60;1.70;;;32.80;57.90;;;;;;5076642;28;20468;-57
2022/06/17 11:07:33;;;;;;;7.22;2.05;;;33.60;56.50;;;;;;5069586;28;20031;-57
2022/06/17 11:10:18;;;;;;;4.85;1.65;;;33.90;56.20;;;;;;5069573;28;20044;-57
2022/06/17 11:12:55;;;;;;;5.75;1.90;;;33.80;56.80;;;;;;5072482;28;20438;-57
2022/06/17 11:15:30;;;;;;;3.75;1.35;;;33.60;56.90;;;;;;5078701;28;20028;-57
2022/06/17 11:18:04;;;;;;;6.72;1.50;;;33.10;55.00;;;;;;5081975;28;20053;-57
2022/06/17 11:20:33;;;;;;;3.03;1.33;;;32.80;54.20;;;;;;5076913;28;20032;-57
2022/06/17 11:23:07;;;;;;;3.72;1.58;;;32.20;55.00;;;;;;5074002;28;20507;-57
2022/06/17 11:25:35;;;;;;;4.70;1.60;;;33.00;54.80;;;;;;5077240;28;20036;-57
2022/06/17 11:28:22;;;;;;;4.43;1.70;;;33.20;55.10;;;;;;5081127;28;20081;-57
2022/06/17 11:30:57;;;;;;;4.18;1.65;;;31.40;55.70;;;;;;5081399;28;20282;-57
2022/06/17 11:33:24;;;;;;;4.80;1.60;;;33.00;56.70;;;;;;5077997;28;20028;-57
2022/06/17 11:36:01;;;;;;;7.85;1.58;;;34.40;55.50;;;;;;5082375;28;20104;-57
2022/06/17 11:38:29;;;;;;;5.63;1.85;;;34.60;55.30;;;;;;5079199;28;20440;-57
2022/06/17 11:40:55;;;;;;;5.10;1.70;;;34.00;55.40;;;;;;5079640;28;20039;-57
2022/06/17 11:43:35;;;;;;;5.00;1.88;;;33.30;55.00;;;;;;5080071;28;20467;-57
2022/06/17 11:46:19;;;;;;;6.35;1.90;;;32.90;55.20;;;;;;5082765;28;20028;-57
2022/06/17 11:48:54;;;;;;;5.50;1.90;;;32.70;55.30;;;;;;5081654;28;20112;-56
2022/06/17 11:51:33;;;;;;;4.57;1.65;;;32.30;56.70;;;;;;5082169;28;20104;-57
2022/06/17 11:54:05;;;;;;;4.10;1.40;;;32.60;56.50;;;;;;5078649;28;20023;-56
2022/06/17 11:56:35;;;;;;;5.93;1.73;;;33.00;55.20;;;;;;5081380;28;20469;-57
2022/06/17 11:59:08;;;;;;;6.30;1.73;;;32.40;55.80;;;;;;5083308;28;20028;-56
2022/06/17 12:01:34;;;;;;;5.68;1.67;;;32.80;55.00;;;;;;5079317;28;20390;-57
2022/06/17 12:04:00;;;;;;;7.95;1.85;;;33.70;56.20;;;;;;5083161;28;20035;-57
2022/06/17 12:06:45;;;;;;;4.25;1.58;;;34.60;55.50;;;;;;5079977;28;20032;-56
2022/06/17 12:09:26;;;;;;;5.95;1.45;;;34.00;53.60;;;;;;5081586;28;20058;-57
2022/06/17 12:11:57;;;;;;;3.10;1.35;;;34.30;53.50;;;;;;5079515;28;20095;-57
2022/06/17 12:14:34;;;;;;;4.25;1.40;;;34.10;55.50;;;;;;5082028;28;20054;-56
2022/06/17 12:17:00;;;;;;;5.35;1.60;;;34.10;53.90;;;;;;5084760;28;20114;-57
2022/06/17 12:19:26;;;;;;;5.25;1.60;;;34.80;53.50;;;;;;5088801;28;20174;-57
2022/06/17 12:21:54;;;;;;;6.07;1.60;;;35.00;52.90;;;;;;5080659;28;20049;-56
2022/06/17 12:25:01;;;;;;;3.03;1.40;;;34.10;54.10;;;;;;5076840;28;20082;-57
2022/06/17 12:27:40;;;;;;;4.38;1.30;;;34.10;53.90;;;;;;5043919;28;20317;-56
2022/06/17 12:30:19;;;;;;;7.57;2.15;;;33.20;54.00;;;;;;5071749;28;20044;-56
2022/06/17 12:32:54;;;;;;;4.22;1.40;;;31.90;53.80;;;;;;5075144;28;20101;-57
2022/06/17 12:35:26;;;;;;;5.10;1.55;;;32.70;53.70;;;;;;5077570;28;20024;-56
2022/06/17 12:38:23;;;;;;;4.47;1.50;;;33.00;53.10;;;;;;5077955;28;20484;-57
2022/06/17 12:40:59;;;;;;;11.57;1.73;;;34.00;54.40;;;;;;5078584;28;20035;-56
2022/06/17 12:44:02;;;;;;;5.47;1.60;;;33.70;53.20;;;;;;5076812;28;20032;-56
2022/06/17 12:47:10;;;;;;;5.07;1.55;;;34.50;53.10;;;;;;5075166;28;20029;-57
2022/06/17 12:53:37;;;;;;;5.68;1.20;;;37.40;50.60;;;;;;4950584;28;20102;-57
2022/06/17 12:56:29;;;;;;;2.70;1.20;;;37.70;47.10;;;;;;5073713;28;20028;-56
2022/06/17 12:59:19;;;;;;;3.25;1.33;;;37.60;47.70;;;;;;5074781;28;20506;-57
2022/06/17 13:01:53;;;;;;;4.30;1.10;;;36.60;48.00;;;;;;5069925;28;20428;-57
2022/06/17 13:05:06;;;;;;;4.30;1.30;;;36.30;49.30;;;;;;5077658;28;20387;-57
2022/06/17 13:07:41;;;;;;;3.00;1.38;;;35.80;50.10;;;;;;5029755;28;20115;-57
2022/06/17 13:10:40;;;;;;;4.05;1.30;;;35.20;50.20;;;;;;5077417;28;20055;-56
2022/06/17 13:13:43;;;;;;;3.75;1.40;;;34.90;50.10;;;;;;5080501;28;20119;-57
2022/06/17 13:16:19;;;;;;;5.47;1.20;;;35.70;50.70;;;;;;5080523;28;20089;-57
2022/06/17 13:19:14;;;;;;;4.00;1.27;;;34.30;50.50;;;;;;5079005;28;20090;-57
2022/06/17 13:22:06;;;;;;;5.18;1.30;;;36.60;50.00;;;;;;5076692;28;20111;-57
2022/06/17 13:24:42;;;;;;;3.10;1.48;;;37.60;49.10;;;;;;5078259;28;20144;-57
2022/06/17 13:27:25;;;;;;;3.67;1.42;;;38.90;49.00;;;;;;5079173;28;20503;-56